Time;durP1;ratioP1;P1;durP2;ratioP2;P2;SDS_P1;SDS_P2;PMS_P1;PMS_P2;Temp;Humidity;BMP_temperature;BMP_pressure;BME280_temperature;BME280_humidity;BME280_pressure;Samples;Min_cycle;Max_cycle;Signal;HPM_P1;HPM_P2
2024/01/22 00:02:21;;;;;;;3.42;3.22;;;10.30;32.30;;;;;;5088618;27;20047;-87
2024/01/22 00:04:47;;;;;;;3.10;2.90;;;10.30;45.60;;;;;;5093808;27;20047;-89
2024/01/22 00:07:13;;;;;;;3.00;2.80;;;10.30;57.00;;;;;;5089452;27;20555;-92
2024/01/22 00:09:38;;;;;;;3.13;2.92;;;10.40;65.10;;;;;;5090272;28;20488;-88
2024/01/22 00:12:04;;;;;;;2.70;2.60;;;10.50;36.60;;;;;;5107396;27;20035;-89
2024/01/22 00:14:30;;;;;;;2.97;2.78;;;10.60;22.00;;;;;;5095144;27;20043;-91
2024/01/22 00:16:56;;;;;;;2.70;2.60;;;10.50;9.80;;;;;;5109218;27;20043;-89
2024/01/22 00:19:22;;;;;;;3.15;2.95;;;10.60;1.00;;;;;;5091426;28;20031;-89
2024/01/22 00:21:48;;;;;;;3.40;3.20;;;10.60;1.00;;;;;;5094006;27;20126;-89
2024/01/22 00:24:13;;;;;;;4.10;3.88;;;10.60;1.00;;;;;;5107930;28;20540;-91
2024/01/22 00:26:39;;;;;;;2.75;2.65;;;10.70;1.00;;;;;;5107339;27;20039;-91
2024/01/22 00:29:05;;;;;;;2.80;2.70;;;10.60;1.00;;;;;;5114208;27;20082;-88
2024/01/22 00:31:30;;;;;;;2.80;2.70;;;10.70;1.00;;;;;;5114419;27;20058;-86
2024/01/22 00:33:56;;;;;;;2.97;2.85;;;10.70;1.00;;;;;;5111843;27;20039;-88
2024/01/22 00:36:22;;;;;;;3.45;3.25;;;10.80;1.00;;;;;;5110502;27;20047;-86
2024/01/22 00:38:47;;;;;;;2.70;2.60;;;10.90;1.00;;;;;;5091281;27;20051;-89
2024/01/22 00:41:13;;;;;;;2.58;2.47;;;10.90;1.00;;;;;;5110353;27;20046;-91
2024/01/22 00:43:39;;;;;;;4.30;4.05;;;10.80;1.00;;;;;;5110117;27;20039;-89
2024/01/22 00:46:05;;;;;;;2.80;2.65;;;10.80;1.00;;;;;;5093934;27;20039;-91
2024/01/22 00:48:36;;;;;;;2.38;2.28;;;10.70;1.30;;;;;;5112809;27;20035;-92
2024/01/22 00:51:02;;;;;;;3.88;3.67;;;10.80;13.70;;;;;;5109659;27;20035;-86
2024/01/22 00:53:28;;;;;;;2.42;2.33;;;10.90;16.00;;;;;;5110372;27;20044;-87
2024/01/22 00:55:54;;;;;;;2.42;2.33;;;10.90;1.00;;;;;;5089882;27;20523;-89
2024/01/22 00:58:19;;;;;;;2.80;2.70;;;11.00;1.00;;;;;;5108652;27;20054;-88
2024/01/22 01:00:45;;;;;;;3.47;3.28;;;11.00;1.00;;;;;;5111779;27;20039;-88
2024/01/22 01:03:14;;;;;;;2.35;2.25;;;10.90;1.00;;;;;;5105900;27;20504;-88
2024/01/22 01:05:39;;;;;;;2.10;2.00;;;11.00;1.00;;;;;;5113044;27;20039;-89
2024/01/22 01:08:08;;;;;;;3.75;3.55;;;11.00;1.00;;;;;;5107998;27;20050;-89
2024/01/22 01:10:33;;;;;;;2.75;2.63;;;11.10;1.00;;;;;;5111422;27;20061;-88
2024/01/22 01:12:59;;;;;;;2.65;2.55;;;11.20;99.90;;;;;;5111418;27;20081;-88
2024/01/22 01:15:25;;;;;;;3.72;3.53;;;11.20;99.90;;;;;;5094344;27;20046;-88
2024/01/22 01:17:50;;;;;;;2.20;2.10;;;11.20;99.90;;;;;;5109130;27;20054;-90
2024/01/22 01:20:16;;;;;;;3.25;3.05;;;11.10;99.90;;;;;;5090574;27;20050;-87
2024/01/22 01:22:42;;;;;;;2.00;1.90;;;11.30;99.90;;;;;;5110509;27;20400;-87
2024/01/22 01:25:08;;;;;;;2.72;2.60;;;11.30;99.90;;;;;;5095330;27;20031;-89
2024/01/22 01:27:33;;;;;;;2.00;1.90;;;11.20;99.90;;;;;;5110136;27;20035;-87
2024/01/22 01:29:59;;;;;;;2.13;2.03;;;11.30;99.90;;;;;;5091548;27;20063;-87
2024/01/22 01:32:26;;;;;;;1.95;1.85;;;11.30;99.90;;;;;;5110283;27;20081;-88
2024/01/22 01:34:52;;;;;;;2.13;2.03;;;11.30;99.90;;;;;;5092572;27;20051;-89
2024/01/22 01:37:17;;;;;;;2.85;2.67;;;11.30;99.90;;;;;;5109775;27;20107;-86
2024/01/22 01:39:43;;;;;;;3.42;3.22;;;11.30;99.90;;;;;;5088140;27;20073;-87
2024/01/22 01:42:09;;;;;;;2.83;2.67;;;11.30;99.90;;;;;;5099371;27;20040;-92
2024/01/22 01:44:37;;;;;;;2.10;2.00;;;11.30;99.90;;;;;;5109740;27;20095;-91
2024/01/22 01:47:04;;;;;;;2.60;2.50;;;11.40;99.90;;;;;;5108726;27;20055;-88
2024/01/22 01:49:30;;;;;;;4.00;3.78;;;11.30;99.90;;;;;;5108329;27;20046;-89
2024/01/22 01:51:57;;;;;;;2.58;2.47;;;11.40;99.90;;;;;;5093773;27;20100;-89
2024/01/22 01:54:24;;;;;;;2.20;2.10;;;11.40;99.90;;;;;;5092901;27;20046;-90
2024/01/22 01:56:51;;;;;;;2.15;2.05;;;11.30;99.90;;;;;;5108215;27;20043;-88
2024/01/22 01:59:19;;;;;;;2.10;2.00;;;11.30;99.90;;;;;;5109643;27;20043;-88
2024/01/22 02:01:44;;;;;;;3.25;3.05;;;11.40;99.90;;;;;;5109134;27;20099;-87
2024/01/22 02:04:10;;;;;;;3.75;3.55;;;11.30;99.90;;;;;;5093102;27;20042;-89
2024/01/22 02:06:36;;;;;;;2.00;1.90;;;11.30;1.00;;;;;;5092037;27;20506;-90
2024/01/22 02:09:02;;;;;;;2.45;2.35;;;11.40;1.00;;;;;;5109545;27;20088;-92
2024/01/22 02:11:28;;;;;;;2.25;2.15;;;11.40;1.00;;;;;;5094633;27;20039;-88
2024/01/22 02:13:54;;;;;;;2.70;2.60;;;11.40;35.70;;;;;;5110422;27;20515;-88
2024/01/22 02:16:20;;;;;;;4.28;4.00;;;11.40;99.90;;;;;;5112093;27;20086;-91
2024/01/22 02:18:45;;;;;;;2.78;2.67;;;11.30;99.90;;;;;;5113670;27;20108;-90
2024/01/22 02:21:11;;;;;;;2.50;2.40;;;11.30;99.90;;;;;;5112006;27;20126;-89
2024/01/22 02:23:37;;;;;;;2.10;2.00;;;11.20;99.90;;;;;;5092394;27;20053;-87
2024/01/22 02:26:02;;;;;;;3.38;3.17;;;11.20;99.90;;;;;;5108589;27;20067;-88
2024/01/22 02:28:31;;;;;;;3.78;3.58;;;11.30;99.90;;;;;;5093668;27;20058;-87
2024/01/22 02:30:57;;;;;;;2.13;2.03;;;11.20;99.90;;;;;;5110257;27;20065;-88
2024/01/22 02:33:22;;;;;;;2.17;2.08;;;11.20;99.90;;;;;;5091673;27;20049;-91
2024/01/22 02:35:48;;;;;;;2.25;2.15;;;11.30;99.90;;;;;;5092304;27;20103;-87
2024/01/22 02:38:14;;;;;;;2.00;1.90;;;11.20;99.90;;;;;;5108733;27;20115;-89
2024/01/22 02:40:39;;;;;;;2.10;2.00;;;11.20;99.90;;;;;;5093626;27;20047;-88
2024/01/22 02:43:05;;;;;;;2.10;2.00;;;11.30;99.90;;;;;;5109152;27;20123;-91
2024/01/22 02:45:31;;;;;;;2.75;2.65;;;11.40;99.90;;;;;;5110243;27;20135;-91
2024/01/22 02:47:56;;;;;;;2.83;2.65;;;11.30;99.90;;;;;;5110433;27;20039;-88
2024/01/22 02:50:22;;;;;;;3.67;3.47;;;11.40;99.90;;;;;;5109688;27;20043;-88
2024/01/22 02:52:48;;;;;;;3.67;3.47;;;11.30;99.90;;;;;;5110789;27;20058;-87
2024/01/22 02:55:14;;;;;;;2.03;1.92;;;11.40;99.90;;;;;;5109992;27;20067;-89
2024/01/22 02:57:40;;;;;;;2.20;2.10;;;11.40;99.90;;;;;;5092295;27;20162;-88
2024/01/22 03:00:09;;;;;;;2.63;2.50;;;11.40;99.90;;;;;;5092148;27;20050;-90
2024/01/22 03:02:35;;;;;;;2.22;2.13;;;11.30;99.90;;;;;;5089840;27;20493;-87
2024/01/22 03:05:09;;;;;;;2.33;2.22;;;11.30;99.90;;;;;;5109309;27;20043;-88
2024/01/22 03:07:35;;;;;;;3.28;3.08;;;11.50;99.90;;;;;;5094598;27;20051;-88
2024/01/22 03:10:01;;;;;;;3.47;3.28;;;11.40;99.90;;;;;;5108978;27;20544;-90
2024/01/22 03:12:27;;;;;;;2.00;1.90;;;11.40;99.90;;;;;;5091777;27;20047;-90
2024/01/22 03:14:53;;;;;;;3.80;3.60;;;11.30;99.90;;;;;;5111698;27;20046;-89
2024/01/22 03:17:19;;;;;;;2.13;2.03;;;11.40;99.90;;;;;;5091781;27;20054;-89
2024/01/22 03:19:44;;;;;;;2.35;2.25;;;11.30;99.90;;;;;;5107860;27;20408;-88
2024/01/22 03:22:15;;;;;;;2.35;2.25;;;11.40;99.90;;;;;;5109270;27;20050;-87
2024/01/22 03:24:45;;;;;;;2.13;2.03;;;11.40;99.90;;;;;;5108253;27;20118;-88
2024/01/22 03:27:11;;;;;;;3.00;2.80;;;11.30;99.90;;;;;;5093034;27;20043;-87
2024/01/22 03:29:39;;;;;;;2.83;2.67;;;11.30;99.90;;;;;;5110806;27;20049;-90
2024/01/22 03:32:05;;;;;;;2.60;2.50;;;11.30;99.90;;;;;;5111237;27;20046;-88
2024/01/22 03:34:31;;;;;;;2.22;2.13;;;11.40;99.90;;;;;;5110732;27;20043;-90
2024/01/22 03:36:57;;;;;;;2.55;2.45;;;11.40;99.90;;;;;;5110322;27;20039;-88
2024/01/22 03:39:22;;;;;;;2.75;2.60;;;11.40;99.90;;;;;;5107999;27;20074;-87
2024/01/22 03:41:48;;;;;;;2.50;2.40;;;11.50;99.90;;;;;;5091980;27;20082;-89
2024/01/22 03:44:14;;;;;;;3.03;2.83;;;11.40;99.90;;;;;;5108783;27;20043;-86
2024/01/22 03:46:39;;;;;;;2.97;2.78;;;11.40;99.90;;;;;;5110276;27;20099;-92
2024/01/22 03:49:05;;;;;;;2.10;2.00;;;11.60;99.90;;;;;;5108211;27;20097;-92
2024/01/22 03:51:31;;;;;;;2.17;2.08;;;11.40;99.90;;;;;;5107705;27;20035;-87
2024/01/22 03:53:57;;;;;;;3.10;2.90;;;11.40;99.90;;;;;;5108419;27;20499;-90
2024/01/22 03:56:22;;;;;;;2.08;1.98;;;11.50;99.90;;;;;;5091814;27;20507;-89
2024/01/22 03:58:48;;;;;;;4.20;3.92;;;11.60;99.90;;;;;;5109374;27;20088;-88
2024/01/22 04:01:23;;;;;;;3.47;3.28;;;11.50;99.90;;;;;;5107129;27;20043;-90
2024/01/22 04:03:50;;;;;;;2.63;2.53;;;11.60;99.90;;;;;;5107824;27;20051;-90
2024/01/22 04:06:17;;;;;;;2.38;2.28;;;11.60;99.90;;;;;;5096168;27;20099;-90
2024/01/22 04:08:42;;;;;;;3.35;3.15;;;11.70;99.90;;;;;;5107344;28;20118;-86
2024/01/22 04:11:08;;;;;;;2.58;2.47;;;11.80;99.90;;;;;;5107224;27;20543;-85
2024/01/22 04:13:34;;;;;;;3.05;2.85;;;11.70;99.90;;;;;;5107627;28;20032;-91
2024/01/22 04:16:02;;;;;;;3.55;3.35;;;11.70;99.90;;;;;;5090765;27;20042;-89
2024/01/22 04:18:28;;;;;;;3.65;3.45;;;11.70;99.90;;;;;;5093174;28;20132;-94
2024/01/22 04:20:54;;;;;;;2.15;2.05;;;11.60;99.90;;;;;;5091184;28;20497;-87
2024/01/22 04:23:19;;;;;;;2.45;2.35;;;11.60;99.90;;;;;;5108957;28;20047;-90
2024/01/22 04:25:45;;;;;;;2.13;2.03;;;11.60;99.90;;;;;;5107338;27;20043;-89
2024/01/22 04:28:11;;;;;;;2.50;2.40;;;11.90;99.90;;;;;;5091972;27;20054;-88
2024/01/22 04:30:36;;;;;;;2.70;2.60;;;11.80;99.90;;;;;;5109058;28;20146;-90
2024/01/22 04:33:02;;;;;;;2.78;2.67;;;11.90;99.90;;;;;;5109894;27;20066;-90
2024/01/22 04:35:28;;;;;;;5.03;4.72;;;11.80;99.90;;;;;;5092421;28;20047;-89
2024/01/22 04:37:53;;;;;;;2.20;2.10;;;11.90;99.90;;;;;;5109329;28;20096;-89
2024/01/22 04:40:19;;;;;;;2.42;2.33;;;11.90;99.90;;;;;;5110566;27;20499;-90
2024/01/22 04:42:45;;;;;;;2.35;2.25;;;11.70;99.90;;;;;;5094002;28;20542;-90
2024/01/22 04:45:12;;;;;;;4.30;4.07;;;11.80;99.90;;;;;;5107613;27;20109;-88
2024/01/22 04:47:40;;;;;;;2.90;2.80;;;11.80;99.90;;;;;;5092247;28;20071;-90
2024/01/22 04:50:06;;;;;;;2.33;2.22;;;12.20;99.90;;;;;;5109295;27;20553;-91
2024/01/22 04:52:32;;;;;;;2.80;2.70;;;12.00;99.90;;;;;;5091305;28;20035;-89
2024/01/22 04:54:58;;;;;;;2.45;2.35;;;11.90;99.90;;;;;;5089739;28;20058;-86
2024/01/22 04:57:23;;;;;;;4.35;4.13;;;12.10;99.90;;;;;;5108779;27;20047;-90
2024/01/22 04:59:52;;;;;;;2.45;2.35;;;12.30;99.90;;;;;;5110472;27;20043;-92
2024/01/22 05:02:22;;;;;;;2.45;2.35;;;12.10;99.90;;;;;;5089822;28;20051;-89
2024/01/22 05:04:49;;;;;;;3.45;3.25;;;12.00;99.90;;;;;;5106025;28;20058;-86
2024/01/22 05:07:14;;;;;;;2.58;2.47;;;12.10;99.90;;;;;;5108130;28;20055;-88
2024/01/22 05:09:40;;;;;;;2.65;2.55;;;12.50;99.90;;;;;;5110749;28;20035;-89
2024/01/22 05:12:06;;;;;;;3.92;3.72;;;12.30;99.90;;;;;;5092621;27;20112;-89
2024/01/22 05:14:32;;;;;;;2.85;2.75;;;12.20;99.90;;;;;;5111804;27;20488;-88
2024/01/22 05:16:57;;;;;;;3.13;2.97;;;12.20;99.90;;;;;;5094847;27;20039;-87
2024/01/22 05:19:23;;;;;;;6.10;5.75;;;12.40;99.90;;;;;;5114991;27;20031;-88
2024/01/22 05:21:48;;;;;;;2.72;2.63;;;12.20;99.90;;;;;;5109032;27;20115;-90
2024/01/22 05:24:14;;;;;;;3.20;3.00;;;12.40;99.90;;;;;;5092700;27;20050;-88
2024/01/22 05:26:40;;;;;;;2.83;2.72;;;12.60;99.90;;;;;;5109031;27;20488;-86
2024/01/22 05:29:05;;;;;;;7.00;6.60;;;12.40;99.90;;;;;;5112600;27;20492;-88
2024/01/22 05:31:31;;;;;;;2.90;2.80;;;12.30;99.90;;;;;;5094926;27;20500;-88
2024/01/22 05:33:57;;;;;;;3.53;3.33;;;12.40;99.90;;;;;;5111754;27;20347;-90
2024/01/22 05:36:22;;;;;;;3.85;3.65;;;12.60;99.90;;;;;;5094810;27;20047;-87
2024/01/22 05:38:48;;;;;;;3.92;3.72;;;12.70;99.90;;;;;;5109823;27;20051;-91
2024/01/22 05:41:15;;;;;;;7.43;7.03;;;12.80;99.90;;;;;;5093424;27;20050;-89
2024/01/22 05:43:40;;;;;;;3.72;3.53;;;12.70;99.90;;;;;;5106818;27;20158;-88
2024/01/22 05:46:07;;;;;;;5.97;5.68;;;13.00;99.90;;;;;;5112752;27;20138;-87
2024/01/22 05:48:33;;;;;;;4.25;4.05;;;12.70;99.90;;;;;;5111312;27;20050;-90
2024/01/22 05:50:58;;;;;;;3.75;3.55;;;12.80;99.90;;;;;;5110918;27;20039;-88
2024/01/22 05:53:24;;;;;;;6.53;6.15;;;12.90;99.90;;;;;;5109233;27;20104;-91
2024/01/22 05:55:50;;;;;;;4.82;4.53;;;12.80;99.90;;;;;;5109224;27;20098;-88
2024/01/22 05:58:16;;;;;;;6.05;5.75;;;12.90;99.90;;;;;;5091951;27;20047;-89
2024/01/22 06:00:42;;;;;;;5.03;4.72;;;12.80;99.90;;;;;;5107925;27;20035;-90
2024/01/22 06:03:08;;;;;;;5.57;5.28;;;12.90;99.90;;;;;;5094885;27;20050;-89
2024/01/22 06:05:34;;;;;;;5.35;5.05;;;12.80;99.90;;;;;;5093567;27;20640;-92
2024/01/22 06:07:59;;;;;;;4.93;4.63;;;12.80;99.90;;;;;;5108221;27;20050;-91
2024/01/22 06:10:27;;;;;;;5.10;4.80;;;13.00;99.90;;;;;;5109492;27;20503;-89
2024/01/22 06:12:53;;;;;;;5.13;4.82;;;13.10;99.90;;;;;;5109953;27;20055;-90
2024/01/22 06:15:18;;;;;;;5.22;4.93;;;12.80;99.90;;;;;;5093381;27;20043;-88
2024/01/22 06:17:44;;;;;;;5.68;5.38;;;13.20;99.90;;;;;;5093674;27;20078;-88
2024/01/22 06:20:11;;;;;;;5.45;5.15;;;13.20;99.90;;;;;;5094121;27;20050;-88
2024/01/22 06:22:36;;;;;;;4.95;4.65;;;13.00;99.90;;;;;;5109526;27;20050;-87
2024/01/22 06:25:04;;;;;;;5.35;5.05;;;12.90;99.90;;;;;;5110610;27;20039;-88
2024/01/22 06:27:29;;;;;;;8.02;7.60;;;12.80;99.90;;;;;;5110962;27;20218;-87
2024/01/22 06:29:59;;;;;;;5.75;5.45;;;12.90;99.90;;;;;;5109966;27;20408;-86
2024/01/22 06:32:25;;;;;;;5.85;5.55;;;13.00;99.90;;;;;;5111430;27;20106;-89
2024/01/22 06:34:51;;;;;;;5.45;5.15;;;12.90;99.90;;;;;;5092066;27;20625;-89
2024/01/22 06:37:16;;;;;;;10.73;10.13;;;13.20;99.90;;;;;;5090431;27;20133;-89
2024/01/22 06:39:42;;;;;;;4.80;4.50;;;12.80;99.90;;;;;;5109791;27;20701;-90
2024/01/22 06:42:08;;;;;;;5.45;5.15;;;13.20;99.90;;;;;;5111802;27;20319;-91
2024/01/22 06:44:34;;;;;;;5.15;4.85;;;13.30;99.90;;;;;;5109909;27;20051;-88
2024/01/22 06:46:59;;;;;;;6.22;5.90;;;13.20;99.90;;;;;;5112013;27;20188;-90
2024/01/22 06:49:25;;;;;;;5.57;5.28;;;13.10;99.90;;;;;;5095147;27;20077;-88
2024/01/22 06:51:51;;;;;;;5.55;5.25;;;12.80;99.90;;;;;;5092170;27;20035;-89
2024/01/22 06:54:16;;;;;;;5.68;5.38;;;13.20;99.90;;;;;;5093384;27;20172;-90
2024/01/22 06:56:42;;;;;;;5.53;5.22;;;12.90;99.90;;;;;;5111368;27;20070;-91
2024/01/22 06:59:08;;;;;;;7.47;7.07;;;13.20;99.90;;;;;;5093680;27;20115;-88
2024/01/22 07:01:34;;;;;;;5.25;4.95;;;12.90;99.90;;;;;;5094256;27;20203;-91
2024/01/22 07:04:00;;;;;;;5.20;4.90;;;13.00;99.90;;;;;;5090045;27;20075;-89
2024/01/22 07:06:26;;;;;;;5.53;5.22;;;13.50;99.90;;;;;;5091548;27;20039;-88
2024/01/22 07:08:51;;;;;;;5.28;4.97;;;13.20;99.90;;;;;;5091180;27;20046;-90
2024/01/22 07:11:17;;;;;;;5.63;5.32;;;13.30;99.90;;;;;;5093228;27;20035;-91
2024/01/22 07:13:42;;;;;;;5.40;5.10;;;13.40;99.90;;;;;;5091758;27;20138;-91
2024/01/22 07:16:08;;;;;;;11.43;10.80;;;13.40;99.90;;;;;;5108913;27;20070;-91
2024/01/22 07:18:34;;;;;;;5.28;4.97;;;13.50;99.90;;;;;;5090269;27;20046;-87
2024/01/22 07:21:00;;;;;;;7.30;6.90;;;13.20;99.90;;;;;;5107235;27;20072;-89
2024/01/22 07:23:26;;;;;;;4.53;4.32;;;13.40;99.90;;;;;;5104936;27;20046;-89
2024/01/22 07:25:54;;;;;;;4.90;4.65;;;13.40;99.90;;;;;;5108195;27;20107;-86
2024/01/22 07:28:20;;;;;;;6.07;5.78;;;13.50;99.90;;;;;;5110708;27;20043;-88
2024/01/22 07:30:45;;;;;;;5.05;4.75;;;13.40;99.90;;;;;;5109284;27;20039;-90
2024/01/22 07:33:11;;;;;;;5.68;5.38;;;13.80;99.90;;;;;;5109854;27;20126;-88
2024/01/22 07:35:37;;;;;;;5.88;5.57;;;13.70;99.90;;;;;;5095275;27;20100;-90
2024/01/22 07:38:05;;;;;;;9.30;8.80;;;13.70;99.90;;;;;;5095670;27;20095;-91
2024/01/22 07:40:30;;;;;;;6.20;5.90;;;13.60;99.90;;;;;;5112710;27;20095;-90
2024/01/22 07:42:56;;;;;;;5.68;5.38;;;13.70;99.90;;;;;;5112933;27;20047;-91
2024/01/22 07:45:22;;;;;;;6.32;6.03;;;13.70;99.90;;;;;;5110722;27;20054;-88
2024/01/22 07:47:48;;;;;;;7.60;7.20;;;13.80;99.90;;;;;;5092746;28;20043;-88
2024/01/22 07:50:14;;;;;;;6.40;6.10;;;13.70;99.90;;;;;;5092986;27;20047;-88
2024/01/22 07:52:41;;;;;;;10.25;9.73;;;13.90;99.90;;;;;;5110741;27;20035;-89
2024/01/22 07:55:07;;;;;;;6.82;6.53;;;14.00;99.90;;;;;;5093977;27;20108;-91
2024/01/22 07:57:34;;;;;;;8.07;7.68;;;14.00;99.90;;;;;;5111471;27;20154;-87
2024/01/22 08:00:00;;;;;;;8.27;7.88;;;13.80;99.90;;;;;;5096184;27;20059;-91
2024/01/22 08:02:26;;;;;;;13.32;12.65;;;14.00;99.90;;;;;;5112384;27;20485;-89
2024/01/22 08:04:54;;;;;;;6.10;5.80;;;13.60;99.90;;;;;;5093898;28;20039;-93
2024/01/22 08:07:20;;;;;;;9.73;9.23;;;13.70;99.90;;;;;;5110590;27;20043;-89
2024/01/22 08:09:46;;;;;;;8.27;7.88;;;13.60;99.90;;;;;;5110512;27;20039;-88
2024/01/22 08:12:12;;;;;;;8.30;7.90;;;13.60;99.90;;;;;;5113116;28;20366;-89
2024/01/22 08:14:40;;;;;;;8.35;7.95;;;13.50;99.90;;;;;;5112723;28;20042;-90
2024/01/22 08:17:07;;;;;;;8.07;7.68;;;14.00;99.90;;;;;;5109449;27;20120;-89
2024/01/22 08:19:34;;;;;;;10.02;9.50;;;13.90;99.90;;;;;;5112577;27;20129;-93
2024/01/22 08:22:02;;;;;;;8.02;7.63;;;13.50;99.90;;;;;;5095906;28;20039;-89
2024/01/22 08:24:28;;;;;;;9.60;9.10;;;13.70;99.90;;;;;;5108290;28;20412;-90
2024/01/22 08:26:54;;;;;;;5.65;5.35;;;13.60;99.90;;;;;;5109553;28;20035;-88
2024/01/22 08:29:20;;;;;;;7.97;7.57;;;14.00;99.90;;;;;;5093422;28;20057;-91
2024/01/22 08:31:45;;;;;;;8.35;7.95;;;13.90;99.90;;;;;;5093175;28;20484;-90
2024/01/22 08:34:11;;;;;;;8.52;8.10;;;13.50;99.90;;;;;;5094278;27;20046;-94
2024/01/22 08:36:37;;;;;;;6.35;6.05;;;13.60;99.90;;;;;;5094366;28;20094;-90
2024/01/22 08:39:06;;;;;;;6.28;5.97;;;13.50;99.90;;;;;;5091398;27;20039;-93
2024/01/22 08:41:34;;;;;;;5.90;5.60;;;13.60;99.90;;;;;;5092206;28;20039;-92
2024/01/22 08:44:05;;;;;;;8.82;8.38;;;13.70;99.90;;;;;;5087439;28;20078;-93
2024/01/22 08:46:32;;;;;;;6.32;6.03;;;14.10;99.90;;;;;;5092799;27;20575;-89
2024/01/22 08:48:57;;;;;;;8.20;7.80;;;13.40;99.90;;;;;;5117418;27;20046;-92
2024/01/22 08:51:23;;;;;;;8.10;7.70;;;13.30;99.90;;;;;;5099003;27;20126;-92
2024/01/22 08:53:49;;;;;;;10.80;10.23;;;13.90;99.90;;;;;;5115135;27;20046;-90
2024/01/22 08:56:15;;;;;;;7.70;7.30;;;13.30;99.90;;;;;;5114723;27;20104;-92
2024/01/22 08:58:41;;;;;;;9.63;9.13;;;13.50;99.90;;;;;;5098284;27;20071;-90
2024/01/22 09:01:07;;;;;;;7.22;6.82;;;13.40;99.90;;;;;;5095091;27;20039;-92
2024/01/22 09:03:33;;;;;;;6.18;5.88;;;14.10;99.90;;;;;;5111251;27;20047;-92
2024/01/22 09:06:00;;;;;;;7.32;6.93;;;14.00;99.90;;;;;;5091799;27;20070;-92
2024/01/22 09:08:26;;;;;;;9.82;9.32;;;13.60;99.90;;;;;;5112561;27;20047;-92
2024/01/22 09:10:52;;;;;;;7.20;6.80;;;13.30;99.90;;;;;;5095891;27;20125;-92
2024/01/22 09:13:17;;;;;;;7.95;7.55;;;14.00;99.90;;;;;;5098341;27;20125;-87
2024/01/22 09:15:43;;;;;;;6.47;6.18;;;14.10;99.90;;;;;;5116343;27;20563;-93
2024/01/22 09:18:09;;;;;;;8.93;8.48;;;13.40;99.90;;;;;;5098455;27;20102;-91
2024/01/22 09:20:34;;;;;;;7.82;7.43;;;13.80;99.90;;;;;;5096827;27;20122;-91
2024/01/22 09:23:01;;;;;;;8.55;8.13;;;13.20;99.90;;;;;;5116911;27;20050;-91
2024/01/22 09:25:26;;;;;;;6.22;5.93;;;14.00;99.90;;;;;;5117160;27;20121;-94
2024/01/22 09:27:52;;;;;;;7.53;7.13;;;13.80;99.90;;;;;;5112727;27;20533;-89
2024/01/22 09:30:18;;;;;;;6.10;5.80;;;13.90;99.90;;;;;;5115389;27;20069;-92
2024/01/22 09:32:44;;;;;;;6.63;6.32;;;14.00;99.90;;;;;;5113900;27;20631;-90
2024/01/22 09:35:10;;;;;;;8.23;7.82;;;13.90;99.90;;;;;;5096685;27;20078;-90
2024/01/22 09:37:36;;;;;;;6.10;5.80;;;13.80;99.90;;;;;;5114111;27;20074;-92
2024/01/22 09:40:02;;;;;;;6.97;6.57;;;13.90;99.90;;;;;;5095879;27;20047;-91
2024/01/22 09:42:29;;;;;;;6.53;6.22;;;13.70;99.90;;;;;;5114488;27;20039;-90
2024/01/22 09:44:56;;;;;;;8.73;8.27;;;13.70;99.90;;;;;;5112496;27;20396;-93
2024/01/22 09:47:27;;;;;;;7.93;7.53;;;13.60;99.90;;;;;;5115080;27;20104;-91
2024/01/22 09:49:52;;;;;;;9.43;8.93;;;13.50;99.90;;;;;;5096974;27;20126;-92
2024/01/22 09:52:18;;;;;;;6.45;6.15;;;13.50;99.90;;;;;;5115435;27;20142;-93
2024/01/22 09:54:44;;;;;;;7.55;7.15;;;13.40;99.90;;;;;;5098094;27;20441;-90
2024/01/22 09:57:19;;;;;;;5.72;5.43;;;13.50;99.90;;;;;;5115909;27;20035;-93
2024/01/22 09:59:48;;;;;;;7.78;7.38;;;13.70;99.90;;;;;;5113231;27;20047;-92
2024/01/22 10:02:16;;;;;;;5.28;4.97;;;13.70;99.90;;;;;;5098082;27;20484;-89
2024/01/22 10:04:43;;;;;;;5.47;5.18;;;13.50;99.90;;;;;;5115670;27;20047;-94
2024/01/22 10:07:13;;;;;;;5.40;5.10;;;13.60;99.90;;;;;;5098962;27;20093;-92
2024/01/22 10:09:39;;;;;;;6.40;6.10;;;13.70;99.90;;;;;;5114549;27;20078;-93
2024/01/22 10:12:05;;;;;;;6.00;5.70;;;13.80;99.90;;;;;;5115772;27;20050;-89
2024/01/22 10:14:34;;;;;;;5.55;5.25;;;13.90;99.90;;;;;;5114973;27;20039;-91
2024/01/22 10:17:17;;;;;;;5.55;5.25;;;13.70;99.90;;;;;;5098251;27;20193;-95
2024/01/22 10:19:45;;;;;;;7.43;7.03;;;13.70;99.90;;;;;;5100893;27;20125;-92
2024/01/22 10:22:12;;;;;;;7.78;7.38;;;13.80;99.90;;;;;;5100441;27;20449;-91
2024/01/22 10:24:39;;;;;;;5.45;5.15;;;13.80;99.90;;;;;;5116687;27;20043;-92
2024/01/22 10:27:17;;;;;;;9.40;8.93;;;13.70;99.90;;;;;;5094966;27;20084;-91
2024/01/22 10:29:45;;;;;;;7.32;6.93;;;13.70;99.90;;;;;;5115293;27;20050;-93
2024/01/22 10:32:11;;;;;;;5.93;5.63;;;13.60;99.90;;;;;;5111578;27;20791;-93
2024/01/22 10:34:50;;;;;;;5.32;5.03;;;13.70;99.90;;;;;;5103104;27;20039;-91
2024/01/22 10:37:17;;;;;;;5.82;5.53;;;13.80;99.90;;;;;;5096140;27;20126;-91
2024/01/22 10:39:44;;;;;;;5.38;5.07;;;13.70;99.90;;;;;;5110690;27;20159;-91
2024/01/22 10:42:12;;;;;;;8.40;7.97;;;13.60;99.90;;;;;;5095962;27;20039;-91
2024/01/22 10:44:39;;;;;;;6.97;6.63;;;13.60;99.90;;;;;;5109742;27;20043;-92
2024/01/22 10:47:05;;;;;;;7.18;6.80;;;13.60;99.90;;;;;;5096402;27;20396;-94
2024/01/22 10:49:33;;;;;;;5.95;5.65;;;13.50;99.90;;;;;;5095981;27;20051;-90
2024/01/22 10:52:02;;;;;;;9.98;9.45;;;13.60;99.90;;;;;;5096936;27;20146;-91
2024/01/22 10:54:28;;;;;;;5.22;4.95;;;13.50;99.90;;;;;;5097557;27;20180;-92
2024/01/22 10:57:03;;;;;;;7.13;6.78;;;13.60;99.90;;;;;;5097251;27;20095;-95
2024/01/22 10:59:36;;;;;;;5.47;5.18;;;13.60;99.90;;;;;;5096127;27;20039;-89
2024/01/22 11:02:03;;;;;;;;;;;13.50;99.90;;;;;;5099155;27;20122;-90
2024/01/22 11:04:50;;;;;;;5.28;4.97;;;13.50;99.90;;;;;;5114383;27;19923;-91
2024/01/22 11:07:19;;;;;;;5.38;5.10;;;13.60;99.90;;;;;;5111397;27;20043;-90
2024/01/22 11:09:48;;;;;;;4.93;4.70;;;13.60;99.90;;;;;;5094250;27;20359;-91
2024/01/22 11:12:21;;;;;;;7.15;6.78;;;13.60;99.90;;;;;;5096191;27;20123;-91
2024/01/22 11:14:47;;;;;;;3.88;3.67;;;13.70;99.90;;;;;;5112591;27;20050;-88
2024/01/22 11:17:14;;;;;;;4.88;4.68;;;14.00;99.90;;;;;;5110253;27;20039;-91
2024/01/22 11:19:40;;;;;;;4.95;4.75;;;14.00;99.90;;;;;;5114673;27;20047;-88
2024/01/22 11:22:19;;;;;;;5.00;4.78;;;14.00;99.90;;;;;;5096309;27;20053;-91
2024/01/22 11:25:09;;;;;;;8.20;7.80;;;13.90;99.90;;;;;;5113504;27;20043;-92
2024/01/22 11:27:39;;;;;;;6.72;6.43;;;14.00;99.90;;;;;;5112364;27;20105;-92
2024/01/22 11:30:21;;;;;;;6.53;6.22;;;13.90;99.90;;;;;;5096159;27;20473;-91
2024/01/22 11:32:47;;;;;;;9.73;9.23;;;13.90;99.90;;;;;;5112563;27;20043;-92
2024/01/22 11:35:30;;;;;;;4.68;4.47;;;13.90;99.90;;;;;;5112436;27;20046;-89
2024/01/22 11:37:56;;;;;;;5.07;4.78;;;13.90;99.90;;;;;;5096832;27;20078;-91
2024/01/22 11:40:46;;;;;;;8.73;8.30;;;13.90;99.90;;;;;;5092123;27;20096;-92
2024/01/22 11:43:12;;;;;;;6.90;6.57;;;13.80;21.40;;;;;;5095672;27;20105;-91
2024/01/22 11:45:38;;;;;;;7.88;7.47;;;13.70;1.00;;;;;;5095819;27;20058;-91
2024/01/22 11:48:16;;;;;;;4.68;4.47;;;13.70;1.00;;;;;;5093822;27;20039;-90
2024/01/22 11:50:43;;;;;;;6.90;6.57;;;13.60;1.00;;;;;;5091538;27;20067;-91
2024/01/22 11:53:12;;;;;;;5.18;4.95;;;13.70;1.00;;;;;;5094321;27;20148;-90
2024/01/22 11:55:39;;;;;;;6.13;5.82;;;13.80;99.90;;;;;;5110771;27;20062;-90
2024/01/22 11:58:09;;;;;;;5.68;5.38;;;13.90;99.90;;;;;;5113804;27;20043;-91
2024/01/22 12:00:34;;;;;;;5.00;4.75;;;14.00;99.90;;;;;;5112216;28;20057;-89
2024/01/22 12:03:01;;;;;;;6.57;6.28;;;13.80;99.90;;;;;;5113975;27;20038;-91
2024/01/22 12:05:27;;;;;;;4.40;4.20;;;13.80;99.90;;;;;;5113661;27;20057;-89
2024/01/22 12:07:52;;;;;;;7.55;7.18;;;13.90;62.10;;;;;;5111042;27;20451;-89
2024/01/22 12:10:26;;;;;;;5.60;5.30;;;13.80;1.00;;;;;;5093232;27;20115;-89
2024/01/22 12:12:56;;;;;;;;;;;13.80;1.00;;;;;;5094846;27;20047;-88
2024/01/22 12:15:23;;;;;;;5.43;5.13;;;13.60;1.00;;;;;;5112984;28;19993;-89
2024/01/22 12:17:50;;;;;;;4.35;4.15;;;13.70;1.00;;;;;;5095329;28;20504;-90
2024/01/22 12:20:20;;;;;;;4.72;4.53;;;13.60;99.90;;;;;;5094756;27;20043;-89
2024/01/22 12:22:54;;;;;;;4.82;4.63;;;13.70;99.90;;;;;;5091281;27;20043;-90
2024/01/22 12:25:20;;;;;;;6.03;5.72;;;13.70;1.00;;;;;;5099775;27;20054;-91
2024/01/22 12:27:47;;;;;;;5.25;5.00;;;13.70;1.00;;;;;;5098326;27;20655;-93
2024/01/22 12:30:17;;;;;;;4.40;4.20;;;13.70;99.90;;;;;;5099093;27;20065;-93
2024/01/22 12:32:55;;;;;;;9.35;8.85;;;13.60;99.90;;;;;;5096415;27;20043;-88
2024/01/22 12:35:22;;;;;;;6.13;5.82;;;13.60;99.90;;;;;;5116007;27;20129;-92
2024/01/22 12:37:48;;;;;;;5.18;4.90;;;13.60;99.90;;;;;;5095510;27;20047;-91
2024/01/22 12:40:16;;;;;;;4.45;4.25;;;13.60;99.90;;;;;;5095542;27;20039;-86
2024/01/22 12:42:50;;;;;;;3.80;3.60;;;13.50;99.90;;;;;;5094636;27;20062;-89
2024/01/22 12:45:20;;;;;;;4.75;4.55;;;13.30;99.90;;;;;;5107721;27;20070;-87
2024/01/22 12:47:46;;;;;;;3.80;3.60;;;13.20;99.90;;;;;;5113857;27;20043;-88